createdAt,value
2023-01-26T00:01:15.196Z,67.97
2023-01-26T00:03:43.181Z,70.97
2023-01-26T00:06:12.239Z,70.95
2023-01-26T00:08:41.377Z,72.25
2023-01-26T00:11:10.653Z,70.88
2023-01-26T00:13:38.432Z,68.35
2023-01-26T00:16:08.908Z,65.13
2023-01-26T00:18:38.070Z,67.45
2023-01-26T00:21:06.179Z,72.43
2023-01-26T00:23:34.973Z,72.68
2023-01-26T00:26:02.798Z,67.53
2023-01-26T00:28:30.488Z,64.88
2023-01-26T00:31:07.885Z,74.78
2023-01-26T00:33:37.451Z,70.07
2023-01-26T00:36:05.611Z,65.65
2023-01-26T00:38:33.238Z,73.25
2023-01-26T00:41:02.685Z,68.32
2023-01-26T00:43:30.507Z,64.28
2023-01-26T00:45:58.061Z,68.05
2023-01-26T00:48:25.706Z,67.05
2023-01-26T00:50:53.619Z,64.95
2023-01-26T00:53:21.311Z,61.78
2023-01-26T00:55:49.034Z,60.22
2023-01-26T00:58:16.711Z,67.03
2023-01-26T01:00:44.504Z,61.95
2023-01-26T01:03:12.221Z,63.05
2023-01-26T01:05:40.041Z,60.30
2023-01-26T01:08:07.781Z,59.95
2023-01-26T01:10:35.954Z,56.33
2023-01-26T01:13:03.753Z,58.85
2023-01-26T01:15:31.483Z,58.45
2023-01-26T01:17:59.101Z,51.65
2023-01-26T01:20:26.678Z,56.38
2023-01-26T01:22:54.849Z,51.65
2023-01-26T01:25:22.521Z,54.47
2023-01-26T01:27:50.236Z,53.95
2023-01-26T01:30:18.131Z,58.35
2023-01-26T01:32:49.698Z,54.88
2023-01-26T01:35:17.649Z,54.88
2023-01-26T01:37:45.598Z,51.45
2023-01-26T01:40:13.837Z,56.20
2023-01-26T01:42:47.335Z,53.20
2023-01-26T01:45:27.355Z,50.78
2023-01-26T01:47:56.676Z,47.53
2023-01-26T01:50:24.911Z,52.28
2023-01-26T01:52:53.522Z,48.55
2023-01-26T01:55:21.267Z,48.40
2023-01-26T01:57:51.781Z,50.95
2023-01-26T02:00:20.884Z,46.67
2023-01-26T02:03:10.291Z,49.00
2023-01-26T02:05:55.371Z,45.25
2023-01-26T02:08:25.598Z,48.00
2023-01-26T02:10:55.185Z,33.55
2023-01-26T02:13:23.432Z,44.95
2023-01-26T02:15:51.807Z,43.85
2023-01-26T02:18:20.115Z,44.78
2023-01-26T02:20:50.856Z,48.88
2023-01-26T02:23:18.401Z,48.08
2023-01-26T02:25:52.859Z,50.28
2023-01-26T02:28:22.507Z,46.47
2023-01-26T02:30:50.472Z,44.83
2023-01-26T02:33:22.590Z,45.35
2023-01-26T02:35:50.225Z,49.53
2023-01-26T02:38:18.695Z,49.63
2023-01-26T02:40:51.976Z,48.40
2023-01-26T02:43:19.839Z,44.92
2023-01-26T02:45:47.632Z,48.63
2023-01-26T02:48:36.605Z,45.92
2023-01-26T02:51:05.572Z,51.05
2023-01-26T02:53:33.395Z,50.00
2023-01-26T02:56:01.131Z,44.40
2023-01-26T02:58:28.812Z,51.60
2023-01-26T03:00:56.595Z,48.08
2023-01-26T03:03:25.468Z,47.25
2023-01-26T03:05:53.414Z,45.78
2023-01-26T03:08:21.200Z,50.55
2023-01-26T03:10:49.299Z,48.30
2023-01-26T03:13:18.189Z,48.58
2023-01-26T03:15:52.927Z,48.70
2023-01-26T03:18:42.874Z,50.20
2023-01-26T03:21:31.563Z,49.72
2023-01-26T03:24:18.251Z,51.65
2023-01-26T03:27:04.525Z,46.38
2023-01-26T03:29:33.511Z,52.03
2023-01-26T03:32:02.244Z,52.35
2023-01-26T03:34:30.065Z,49.88
2023-01-26T03:36:58.539Z,52.88
2023-01-26T03:39:48.212Z,51.90
2023-01-26T03:42:36.829Z,51.70
2023-01-26T03:45:23.868Z,52.88
2023-01-26T03:48:10.122Z,51.08
2023-01-26T03:50:56.346Z,54.20
2023-01-26T03:53:43.941Z,51.25
2023-01-26T03:56:19.136Z,54.33
2023-01-26T03:58:51.985Z,54.28
2023-01-26T04:01:26.161Z,53.15
2023-01-26T04:04:13.993Z,52.50
2023-01-26T04:07:02.171Z,53.05
2023-01-26T04:09:31.170Z,51.25
2023-01-26T04:11:59.223Z,47.22
2023-01-26T04:14:50.457Z,55.03
2023-01-26T04:17:42.035Z,52.72
2023-01-26T04:20:28.828Z,54.30
2023-01-26T04:22:56.932Z,48.13
2023-01-26T04:25:24.672Z,49.13
2023-01-26T04:27:52.532Z,47.05
2023-01-26T04:30:20.699Z,49.47
2023-01-26T04:32:48.908Z,47.65
2023-01-26T04:35:17.390Z,45.70
2023-01-26T04:37:45.157Z,48.85
2023-01-26T04:40:13.129Z,54.63
2023-01-26T04:42:41.555Z,49.28
2023-01-26T04:45:10.918Z,45.40
2023-01-26T04:47:39.002Z,47.13
2023-01-26T04:50:07.151Z,47.95
2023-01-26T04:52:34.936Z,46.50
2023-01-26T04:55:02.577Z,45.55
2023-01-26T04:57:32.748Z,48.47
2023-01-26T05:00:03.791Z,49.25
2023-01-26T05:02:31.438Z,46.88
2023-01-26T05:04:59.094Z,48.40
2023-01-26T05:07:26.851Z,45.13
2023-01-26T05:09:55.759Z,46.28
2023-01-26T05:12:42.973Z,46.53
2023-01-26T05:15:33.497Z,35.20
2023-01-26T05:18:33.387Z,47.15
2023-01-26T05:21:05.903Z,46.13
2023-01-26T05:23:41.894Z,45.25
2023-01-26T05:26:25.691Z,44.80
2023-01-26T05:28:59.054Z,49.50
2023-01-26T05:31:27.269Z,45.03
2023-01-26T05:33:55.674Z,48.78
2023-01-26T05:36:24.783Z,44.40
2023-01-26T05:38:52.680Z,46.58
2023-01-26T05:41:24.497Z,46.13
2023-01-26T05:44:10.945Z,42.08
2023-01-26T05:46:43.225Z,40.00
2023-01-26T05:49:11.728Z,37.55
2023-01-26T05:51:39.344Z,34.92
2023-01-26T05:54:16.948Z,32.83
2023-01-26T05:56:44.757Z,31.50
2023-01-26T05:59:12.462Z,30.77
2023-01-26T06:01:42.831Z,32.67
2023-01-26T06:04:12.029Z,33.30
2023-01-26T06:06:48.263Z,30.88
2023-01-26T06:09:29.473Z,88.50
2023-01-26T06:12:21.368Z,32.45
2023-01-26T06:14:58.551Z,30.30
2023-01-26T06:17:42.732Z,30.70
2023-01-26T06:20:15.023Z,29.52
2023-01-26T06:22:48.643Z,32.10
2023-01-26T06:25:16.526Z,30.63
2023-01-26T06:27:45.018Z,30.00
2023-01-26T06:30:24.236Z,33.45
2023-01-26T06:32:52.705Z,32.92
2023-01-26T06:35:20.602Z,34.15
2023-01-26T06:37:51.525Z,40.43
2023-01-26T06:40:20.045Z,31.55
2023-01-26T06:42:48.911Z,33.58
2023-01-26T06:45:20.766Z,31.60
2023-01-26T06:47:53.166Z,33.28
2023-01-26T06:52:51.259Z,31.15
2023-01-26T06:55:38.164Z,30.13
2023-01-26T06:58:24.440Z,33.83
2023-01-26T07:00:52.118Z,34.60
2023-01-26T07:03:27.698Z,37.10
2023-01-26T07:05:56.406Z,36.30
2023-01-26T07:08:24.128Z,38.28
2023-01-26T07:10:51.810Z,38.25
2023-01-26T07:13:19.325Z,37.33
2023-01-26T07:15:47.090Z,37.60
2023-01-26T07:18:14.854Z,36.97
2023-01-26T07:20:42.693Z,34.67
2023-01-26T07:23:11.415Z,35.67
2023-01-26T07:25:39.101Z,35.97
2023-01-26T07:28:10.022Z,35.42
2023-01-26T07:30:37.957Z,35.78
2023-01-26T07:33:05.844Z,32.45
2023-01-26T07:35:36.504Z,50.63
2023-01-26T07:38:07.468Z,35.22
2023-01-26T07:40:35.401Z,30.25
2023-01-26T07:43:05.426Z,27.58
2023-01-26T07:45:54.933Z,29.73
2023-01-26T07:51:04.083Z,27.42
2023-01-26T07:53:39.457Z,27.88
2023-01-26T07:56:08.208Z,29.95
2023-01-26T07:58:36.288Z,32.38
2023-01-26T08:01:15.911Z,29.33
2023-01-26T08:03:45.579Z,29.05
2023-01-26T08:06:15.100Z,25.38
2023-01-26T08:08:46.075Z,26.77
2023-01-26T08:11:19.560Z,25.40
2023-01-26T08:13:47.537Z,23.17
2023-01-26T08:16:15.561Z,21.65
2023-01-26T08:18:44.382Z,22.33
2023-01-26T08:21:16.785Z,22.40
2023-01-26T08:23:59.812Z,21.20
2023-01-26T08:26:30.349Z,21.15
2023-01-26T08:28:58.800Z,19.88
2023-01-26T08:31:35.948Z,20.00
2023-01-26T08:34:04.539Z,19.10
2023-01-26T08:36:35.127Z,18.10
2023-01-26T08:39:07.463Z,20.80
2023-01-26T08:41:38.319Z,16.88
2023-01-26T08:44:06.459Z,18.35
2023-01-26T08:46:34.372Z,19.70
2023-01-26T08:49:02.208Z,20.55
2023-01-26T08:51:30.323Z,17.77
2023-01-26T08:54:01.678Z,18.20
2023-01-26T08:56:29.402Z,21.00
2023-01-26T08:58:57.805Z,19.48
2023-01-26T09:01:26.250Z,21.27
2023-01-26T09:03:56.090Z,19.63
2023-01-26T09:06:23.756Z,21.80
2023-01-26T09:08:51.409Z,20.30
2023-01-26T09:11:19.167Z,20.48
2023-01-26T09:14:01.036Z,21.10
2023-01-26T09:16:31.126Z,22.38
2023-01-26T09:19:05.610Z,20.20
2023-01-26T09:21:40.024Z,20.83
2023-01-26T09:24:13.987Z,20.88
2023-01-26T09:26:45.580Z,18.70
2023-01-26T09:29:27.535Z,19.67
2023-01-26T09:31:55.509Z,16.83
2023-01-26T09:34:27.995Z,20.55
2023-01-26T09:37:03.841Z,17.73
2023-01-26T09:39:31.620Z,17.48
2023-01-26T09:42:07.172Z,15.10
2023-01-26T09:44:41.929Z,17.42
2023-01-26T09:47:24.642Z,19.33
2023-01-26T09:50:00.523Z,14.52
2023-01-26T09:52:37.773Z,16.05
2023-01-26T09:55:15.659Z,14.77
2023-01-26T09:58:03.553Z,15.60
2023-01-26T10:00:49.278Z,15.68
2023-01-26T10:03:38.347Z,16.90
2023-01-26T10:06:27.773Z,15.43
2023-01-26T10:09:34.571Z,16.05
2023-01-26T10:12:06.580Z,19.00
2023-01-26T10:14:45.803Z,17.73
2023-01-26T10:17:19.629Z,14.27
2023-01-26T10:19:53.425Z,17.63
2023-01-26T10:22:25.174Z,15.07
2023-01-26T10:24:53.584Z,15.77
2023-01-26T10:27:21.255Z,16.60
2023-01-26T10:29:49.019Z,16.55
2023-01-26T10:32:18.434Z,16.67
2023-01-26T10:34:47.110Z,15.25
2023-01-26T10:37:21.197Z,17.60
2023-01-26T10:40:02.402Z,14.55
2023-01-26T10:42:31.858Z,15.57
2023-01-26T10:45:02.207Z,16.08
2023-01-26T10:47:29.819Z,18.90
2023-01-26T10:50:15.771Z,16.80
2023-01-26T10:52:57.621Z,16.45
2023-01-26T10:55:25.667Z,15.75
2023-01-26T10:57:53.635Z,16.58
2023-01-26T11:00:32.786Z,17.45
2023-01-26T11:03:20.807Z,16.85
2023-01-26T11:06:05.723Z,19.55
2023-01-26T11:08:34.954Z,18.38
2023-01-26T11:11:03.802Z,18.63
2023-01-26T11:13:31.526Z,20.67
2023-01-26T11:16:04.512Z,19.05
2023-01-26T11:18:42.476Z,17.23
2023-01-26T11:21:20.796Z,15.40
2023-01-26T11:23:51.619Z,14.00
2023-01-26T11:26:28.632Z,13.45
2023-01-26T11:29:01.896Z,14.65
2023-01-26T11:31:48.575Z,15.20
2023-01-26T11:34:29.768Z,20.20
2023-01-26T11:37:03.599Z,19.90
2023-01-26T11:39:51.738Z,16.83
2023-01-26T11:42:25.058Z,20.23
2023-01-26T11:45:11.967Z,17.35
2023-01-26T11:47:54.171Z,18.80
2023-01-26T11:50:45.051Z,18.10
2023-01-26T11:53:20.399Z,16.52
2023-01-26T11:55:57.067Z,17.52
2023-01-26T11:58:33.529Z,17.27
2023-01-26T12:01:07.956Z,18.25
2023-01-26T12:03:50.102Z,18.65
2023-01-26T12:06:24.012Z,17.85
2023-01-26T12:09:18.945Z,19.90
2023-01-26T12:11:53.677Z,18.15
2023-01-26T12:14:24.643Z,21.85
2023-01-26T12:17:16.826Z,20.63
2023-01-26T12:19:52.977Z,21.15
2023-01-26T12:22:28.985Z,23.52
2023-01-26T12:25:28.680Z,24.23
2023-01-26T12:27:58.223Z,21.20
2023-01-26T12:30:26.249Z,21.42
2023-01-26T12:32:54.117Z,20.42
2023-01-26T12:35:44.389Z,21.10
2023-01-26T12:38:18.133Z,21.17
2023-01-26T12:40:54.687Z,20.20
2023-01-26T12:43:45.708Z,21.35
2023-01-26T12:46:14.445Z,20.98
2023-01-26T12:48:49.267Z,22.35
2023-01-26T12:51:25.489Z,21.30
2023-01-26T12:54:05.613Z,21.08
2023-01-26T12:56:35.993Z,23.40
2023-01-26T12:59:38.553Z,21.98
2023-01-26T13:02:21.496Z,20.95
2023-01-26T13:04:49.703Z,22.13
2023-01-26T13:07:31.982Z,24.88
2023-01-26T13:10:20.627Z,21.70
2023-01-26T13:12:56.287Z,21.95
2023-01-26T13:15:30.670Z,18.83
2023-01-26T13:17:58.677Z,22.48
2023-01-26T13:20:43.083Z,23.25
2023-01-26T13:23:29.280Z,20.20
2023-01-26T13:26:15.196Z,20.15
2023-01-26T13:28:43.044Z,19.15
2023-01-26T13:31:11.477Z,18.98
2023-01-26T13:33:40.077Z,21.83
2023-01-26T13:36:14.437Z,18.50
2023-01-26T13:38:56.892Z,19.60
2023-01-26T13:41:24.683Z,19.10
2023-01-26T13:43:56.880Z,19.73
2023-01-26T13:46:29.874Z,18.67
2023-01-26T13:48:57.836Z,21.38
2023-01-26T13:51:27.656Z,19.92
2023-01-26T13:54:01.663Z,20.65
2023-01-26T13:56:39.878Z,20.35
2023-01-26T13:59:09.788Z,20.63
2023-01-26T14:01:43.713Z,18.55
2023-01-26T14:04:15.903Z,21.98
2023-01-26T14:06:47.923Z,18.60
2023-01-26T14:09:16.334Z,18.63
2023-01-26T14:11:44.065Z,20.23
2023-01-26T14:14:21.746Z,21.08
2023-01-26T14:16:49.502Z,23.85
2023-01-26T14:19:21.579Z,21.73
2023-01-26T14:21:51.145Z,22.80
2023-01-26T14:24:21.149Z,20.70
2023-01-26T14:26:49.281Z,23.95
2023-01-26T14:29:24.716Z,23.08
2023-01-26T14:32:02.759Z,22.20
2023-01-26T14:34:31.423Z,21.80
2023-01-26T14:37:06.233Z,19.98
2023-01-26T14:39:34.749Z,21.63
2023-01-26T14:42:02.716Z,23.38
2023-01-26T14:44:30.909Z,25.30
2023-01-26T14:47:07.145Z,26.13
2023-01-26T14:49:45.508Z,26.90
2023-01-26T14:52:25.751Z,23.40
2023-01-26T14:54:54.950Z,22.85
2023-01-26T14:57:24.734Z,26.48
2023-01-26T14:59:58.558Z,23.45
2023-01-26T15:02:27.870Z,26.13
2023-01-26T15:05:01.717Z,32.30
2023-01-26T15:07:33.376Z,25.50
2023-01-26T15:10:01.029Z,28.00
2023-01-26T15:13:18.936Z,25.38
2023-01-26T15:15:51.272Z,29.45
2023-01-26T15:18:20.471Z,26.70
2023-01-26T15:21:06.405Z,29.02
2023-01-26T15:23:36.662Z,27.48
2023-01-26T15:26:05.750Z,28.10
2023-01-26T15:28:33.626Z,28.13
2023-01-26T15:31:01.343Z,28.40
2023-01-26T15:33:44.300Z,33.47
2023-01-26T15:36:21.931Z,30.15
2023-01-26T15:38:49.594Z,30.80
2023-01-26T15:41:17.317Z,28.35
2023-01-26T15:43:44.969Z,29.85
2023-01-26T15:46:12.588Z,29.95
2023-01-26T15:48:40.221Z,30.52
2023-01-26T15:51:14.518Z,25.55
2023-01-26T15:53:42.206Z,28.52
2023-01-26T15:56:14.198Z,30.02
2023-01-26T15:58:42.284Z,29.50
2023-01-26T16:01:17.948Z,25.92
2023-01-26T16:03:45.619Z,28.13
2023-01-26T16:06:33.494Z,27.27
2023-01-26T16:09:01.319Z,26.30
2023-01-26T16:11:30.832Z,26.70
2023-01-26T16:14:03.510Z,26.52
2023-01-26T16:16:32.687Z,28.17
2023-01-26T16:19:00.433Z,28.60
2023-01-26T16:21:33.300Z,27.70
2023-01-26T16:24:01.784Z,28.48
2023-01-26T16:26:29.497Z,27.42
2023-01-26T16:28:57.286Z,28.90
2023-01-26T16:31:36.652Z,31.83
2023-01-26T16:34:04.404Z,27.73
2023-01-26T16:36:32.042Z,27.88
2023-01-26T16:38:59.731Z,31.40
2023-01-26T16:41:31.870Z,33.67
2023-01-26T16:44:00.556Z,29.90
2023-01-26T16:46:29.167Z,34.30
2023-01-26T16:48:57.069Z,30.83
2023-01-26T16:51:29.403Z,29.85
2023-01-26T16:53:57.227Z,30.48
2023-01-26T16:56:25.626Z,30.52
2023-01-26T16:58:53.184Z,29.67
2023-01-26T17:01:22.392Z,31.38
2023-01-26T17:03:50.435Z,31.58
2023-01-26T17:06:20.805Z,30.13
2023-01-26T17:08:48.535Z,31.37
2023-01-26T17:11:21.027Z,29.08
2023-01-26T17:13:49.097Z,32.75
2023-01-26T17:16:17.899Z,31.23
2023-01-26T17:18:48.184Z,32.67
2023-01-26T17:21:17.140Z,32.80
2023-01-26T17:23:45.217Z,30.23
2023-01-26T17:26:15.389Z,32.95
2023-01-26T17:28:47.692Z,36.95
2023-01-26T17:31:19.317Z,34.28
2023-01-26T17:33:48.396Z,33.90
2023-01-26T17:36:16.568Z,32.47
2023-01-26T17:38:44.160Z,31.42
2023-01-26T17:41:11.762Z,31.77
2023-01-26T17:43:40.177Z,34.67
2023-01-26T17:46:09.533Z,29.98
2023-01-26T17:48:40.128Z,33.88
2023-01-26T17:51:12.086Z,28.08
2023-01-26T17:53:40.750Z,31.77
2023-01-26T17:56:09.477Z,32.92
2023-01-26T17:58:37.494Z,30.85
2023-01-26T18:01:05.742Z,29.88
2023-01-26T18:03:34.174Z,30.60
2023-01-26T18:06:01.927Z,32.30
2023-01-26T18:08:29.709Z,31.23
2023-01-26T18:10:58.601Z,27.10
2023-01-26T18:13:26.363Z,27.35
2023-01-26T18:15:55.092Z,27.98
2023-01-26T18:18:23.788Z,27.13
2023-01-26T18:20:51.881Z,29.85
2023-01-26T18:23:20.708Z,27.60
2023-01-26T18:25:48.874Z,32.58
2023-01-26T18:28:16.803Z,28.85
2023-01-26T18:30:44.896Z,28.58
2023-01-26T18:33:12.870Z,30.15
2023-01-26T18:35:40.751Z,27.67
2023-01-26T18:38:08.762Z,28.88
2023-01-26T18:40:36.439Z,24.98
2023-01-26T18:43:04.190Z,27.27
2023-01-26T18:45:32.253Z,30.00
2023-01-26T18:48:00.052Z,27.88
2023-01-26T18:50:30.997Z,28.65
2023-01-26T18:52:58.903Z,26.00
2023-01-26T18:55:26.631Z,25.60
2023-01-26T18:57:56.731Z,26.58
2023-01-26T19:00:27.031Z,26.25
2023-01-26T19:02:54.896Z,26.77
2023-01-26T19:05:25.083Z,23.80
2023-01-26T19:07:52.765Z,27.35
2023-01-26T19:10:20.552Z,26.30
2023-01-26T19:12:51.215Z,24.85
2023-01-26T19:15:18.883Z,20.00
2023-01-26T19:17:46.630Z,25.80
2023-01-26T19:20:14.369Z,26.70
2023-01-26T19:22:42.073Z,22.85
2023-01-26T19:25:10.046Z,23.85
2023-01-26T19:27:37.750Z,25.13
2023-01-26T19:30:06.278Z,22.42
2023-01-26T19:32:33.838Z,24.45
2023-01-26T19:35:01.659Z,24.90
2023-01-26T19:37:29.635Z,25.52
2023-01-26T19:39:57.240Z,26.45
2023-01-26T19:42:24.976Z,26.05
2023-01-26T19:44:52.533Z,24.00
2023-01-26T19:47:20.653Z,22.27
2023-01-26T19:49:48.276Z,24.48
2023-01-26T19:52:16.011Z,22.05
2023-01-26T19:54:43.741Z,23.58
2023-01-26T19:57:11.396Z,23.48
2023-01-26T19:59:39.354Z,26.63
2023-01-26T20:02:07.723Z,23.40
2023-01-26T20:04:35.338Z,25.95
2023-01-26T20:07:05.285Z,25.30
2023-01-26T20:09:34.563Z,23.02
2023-01-26T20:12:07.115Z,26.90
2023-01-26T20:14:34.864Z,21.42
2023-01-26T20:17:02.715Z,23.70
2023-01-26T20:19:32.009Z,23.52
2023-01-26T20:21:59.976Z,23.35
2023-01-26T20:24:27.937Z,22.90
2023-01-26T20:26:56.017Z,23.85
2023-01-26T20:29:23.716Z,23.45
2023-01-26T20:31:51.538Z,25.08
2023-01-26T20:34:21.860Z,21.80
2023-01-26T20:36:50.082Z,22.40
2023-01-26T20:39:24.533Z,22.30
2023-01-26T20:41:52.951Z,23.40
2023-01-26T20:44:23.955Z,24.13
2023-01-26T20:46:51.629Z,20.67
2023-01-26T20:49:19.312Z,21.75
2023-01-26T20:51:47.189Z,24.08
2023-01-26T20:54:16.271Z,26.52
2023-01-26T20:56:45.913Z,23.20
2023-01-26T20:59:13.693Z,23.33
2023-01-26T21:01:41.297Z,21.10
2023-01-26T21:04:09.010Z,26.17
2023-01-26T21:06:36.963Z,24.30
2023-01-26T21:09:05.356Z,22.83
2023-01-26T21:11:33.383Z,24.95
2023-01-26T21:14:01.813Z,22.92
2023-01-26T21:16:30.338Z,23.80
2023-01-26T21:18:58.426Z,22.35
2023-01-26T21:21:26.203Z,19.90
2023-01-26T21:23:53.846Z,22.85
2023-01-26T21:26:22.969Z,20.92
2023-01-26T21:28:54.028Z,19.45
2023-01-26T21:31:22.958Z,21.33
2023-01-26T21:33:50.965Z,20.45
2023-01-26T21:36:20.242Z,20.25
2023-01-26T21:38:50.900Z,18.63
2023-01-26T21:41:38.800Z,17.80
2023-01-26T21:44:16.856Z,18.60
2023-01-26T21:46:48.594Z,19.42
2023-01-26T21:49:16.780Z,18.55
2023-01-26T21:52:02.894Z,17.05
2023-01-26T21:54:31.747Z,15.00
2023-01-26T21:56:59.904Z,14.82
2023-01-26T21:59:27.933Z,14.50
2023-01-26T22:01:56.743Z,13.70
2023-01-26T22:04:26.725Z,14.52
2023-01-26T22:06:55.584Z,13.82
2023-01-26T22:09:26.733Z,13.23
2023-01-26T22:14:26.159Z,15.85
2023-01-26T22:16:54.155Z,14.15
2023-01-26T22:19:21.838Z,13.98
2023-01-26T22:21:49.647Z,12.65
2023-01-26T22:24:18.151Z,13.32
2023-01-26T22:26:45.998Z,17.02
2023-01-26T22:29:13.795Z,17.13
2023-01-26T22:31:41.999Z,15.32
2023-01-26T22:34:11.320Z,13.93
2023-01-26T22:36:39.556Z,13.65
2023-01-26T22:39:07.851Z,14.65
2023-01-26T22:41:37.892Z,17.05
2023-01-26T22:44:08.675Z,10.88
2023-01-26T22:46:36.859Z,13.07
2023-01-26T22:49:07.566Z,14.30
2023-01-26T22:51:38.788Z,14.65
2023-01-26T22:56:34.163Z,14.38
2023-01-26T22:59:01.843Z,15.38
2023-01-26T23:01:31.257Z,14.40
2023-01-26T23:03:59.442Z,13.63
2023-01-26T23:06:27.379Z,13.90
2023-01-26T23:08:55.436Z,14.15
2023-01-26T23:11:24.562Z,14.98
2023-01-26T23:13:53.028Z,14.70
2023-01-26T23:16:22.995Z,14.18
2023-01-26T23:18:51.310Z,14.23
2023-01-26T23:21:19.483Z,14.88
2023-01-26T23:23:48.484Z,15.00
2023-01-26T23:26:16.290Z,15.57
2023-01-26T23:28:44.694Z,15.70
2023-01-26T23:31:16.289Z,13.93
2023-01-26T23:33:44.075Z,13.05
2023-01-26T23:36:12.309Z,15.43
2023-01-26T23:38:40.179Z,14.82
2023-01-26T23:41:10.570Z,13.70
2023-01-26T23:43:38.429Z,16.05
2023-01-26T23:46:07.636Z,14.43
2023-01-26T23:48:35.472Z,14.00
2023-01-26T23:51:05.110Z,13.63
2023-01-26T23:53:32.825Z,12.85
2023-01-26T23:56:01.579Z,14.07
2023-01-26T23:58:29.256Z,13.32
